Kissimmee, Florida
Current Conditions -  °F | °C
As of 9:50 PM on Saturday 20 Dec 2014 (Local Time) from KISM Reporting Station
Clear Clear  
Wind Chill: 66°   Ceiling: Unl
Heat Index: 66°   Visibility: 10mi
Dew Point: 64°   Wind: 5mph
Humidity: 94%   Direction: 120°ESE
Pressure: 30.1"   Gusts: NA
Location:  28.29°N, 81.41°W
Report Text: KISM 210250Z 12004KT 10SM SKC 19/18 A3010 RMK LAST
Loading
Personal Weather Stations






























Interactive Weather Map New forecast layout! Learn more

10-Day Weather Forecast

Advertisements
Track Severe Weather on mobile